Time;durP1;ratioP1;P1;durP2;ratioP2;P2;SDS_P1;SDS_P2;PMS_P1;PMS_P2;Temp;Humidity;BMP_temperature;BMP_pressure;BME280_temperature;BME280_humidity;BME280_pressure;Samples;Min_cycle;Max_cycle;Signal;HPM_P1;HPM_P2
2022/03/17 00:00:20;;;;;;;9.23;5.25;;;;;;;;;;5014177;28;20053;-75
2022/03/17 00:02:48;;;;;;;10.63;5.57;;;;;;;;;;5006775;28;20072;-75
2022/03/17 00:05:15;;;;;;;17.23;6.55;;;;;;;;;;5014179;28;20066;-71
2022/03/17 00:07:44;;;;;;;9.75;6.00;;;;;;;;;;5013500;28;20034;-71
2022/03/17 00:10:14;;;;;;;12.02;6.68;;;;;;;;;;5013964;28;20061;-74
2022/03/17 00:12:42;;;;;;;14.52;6.60;;;;;;;;;;5014681;28;20049;-72
2022/03/17 00:15:10;;;;;;;13.48;7.15;;;;;;;;;;5014675;28;20050;-75
2022/03/17 00:17:37;;;;;;;10.18;7.18;;;;;;;;;;5014856;28;20053;-75
2022/03/17 00:20:07;;;;;;;12.25;7.30;;;;;;;;;;4996782;28;20052;-69
2022/03/17 00:22:35;;;;;;;13.93;8.32;;;;;;;;;;5014741;28;20046;-71
2022/03/17 00:25:04;;;;;;;14.93;8.30;;;;;;;;;;5014401;28;20041;-75
2022/03/17 00:27:33;;;;;;;14.00;7.68;;;;;;;;;;4996858;28;20038;-69
2022/03/17 00:30:00;;;;;;;13.93;8.02;;;;;;;;;;4997183;28;20045;-71
2022/03/17 00:32:28;;;;;;;15.23;8.73;;;;;;;;;;5014232;28;20054;-71
2022/03/17 00:37:41;;;;;;;18.92;10.07;;;;;;;;;;5014150;28;20433;-69
2022/03/17 00:40:09;;;;;;;16.90;9.45;;;;;;;;;;5014300;28;20042;-69
2022/03/17 00:42:39;;;;;;;19.45;10.07;;;;;;;;;;5014660;28;20049;-75
2022/03/17 00:45:09;;;;;;;15.95;8.75;;;;;;;;;;5014009;28;20046;-75
2022/03/17 00:47:39;;;;;;;15.38;9.45;;;;;;;;;;5014489;28;20398;-69
2022/03/17 00:50:07;;;;;;;14.85;9.10;;;;;;;;;;5014108;28;20076;-75
2022/03/17 00:52:35;;;;;;;16.02;9.05;;;;;;;;;;5014299;28;20046;-74
2022/03/17 00:55:05;;;;;;;16.77;9.25;;;;;;;;;;5014191;28;20121;-74
2022/03/17 00:57:33;;;;;;;13.57;8.23;;;;;;;;;;5014389;28;20048;-74
2022/03/17 01:00:01;;;;;;;12.77;8.18;;;;;;;;;;5013901;28;20049;-69
2022/03/17 01:02:29;;;;;;;12.30;7.88;;;;;;;;;;5014058;28;20097;-74
2022/03/17 01:04:57;;;;;;;16.38;8.77;;;;;;;;;;4996342;28;20069;-69
2022/03/17 01:07:24;;;;;;;18.35;8.20;;;;;;;;;;5013954;28;20038;-75
2022/03/17 01:09:52;;;;;;;15.93;9.10;;;;;;;;;;5014045;28;20124;-74
2022/03/17 01:12:21;;;;;;;15.35;8.68;;;;;;;;;;4996311;28;20109;-75
2022/03/17 01:14:49;;;;;;;13.90;8.13;;;;;;;;;;5013991;28;20046;-72
2022/03/17 01:17:16;;;;;;;16.25;8.23;;;;;;;;;;5014021;28;20125;-71
2022/03/17 01:19:44;;;;;;;12.50;8.07;;;;;;;;;;4996734;28;20046;-75
2022/03/17 01:22:11;;;;;;;11.27;8.27;;;;;;;;;;5013927;28;20034;-74
2022/03/17 01:24:39;;;;;;;10.43;7.28;;;;;;;;;;5013485;28;20042;-73
2022/03/17 01:27:06;;;;;;;15.25;8.63;;;;;;;;;;5013808;28;20069;-75
2022/03/17 01:29:34;;;;;;;16.95;8.00;;;;;;;;;;4996179;28;20069;-69
2022/03/17 01:32:02;;;;;;;11.23;7.18;;;;;;;;;;4996033;28;20042;-69
2022/03/17 01:34:31;;;;;;;13.68;7.95;;;;;;;;;;5013766;28;20449;-69
2022/03/17 01:36:59;;;;;;;12.45;7.65;;;;;;;;;;5013400;28;20080;-74
2022/03/17 01:39:26;;;;;;;12.55;7.78;;;;;;;;;;4996015;28;20412;-69
2022/03/17 01:41:59;;;;;;;13.97;7.57;;;;;;;;;;5013593;28;20037;-71
2022/03/17 01:44:26;;;;;;;10.55;7.55;;;;;;;;;;5013458;28;20279;-69
2022/03/17 01:49:41;;;;;;;19.00;8.13;;;;;;;;;;4995403;28;20050;-72
2022/03/17 01:52:08;;;;;;;15.13;8.57;;;;;;;;;;5013498;28;20042;-71
2022/03/17 01:54:36;;;;;;;10.82;7.50;;;;;;;;;;5013486;28;20072;-75
2022/03/17 01:57:05;;;;;;;9.48;6.82;;;;;;;;;;4995936;28;20501;-75
2022/03/17 01:59:34;;;;;;;12.45;7.53;;;;;;;;;;5013337;28;20462;-70
2022/03/17 02:02:02;;;;;;;13.38;6.82;;;;;;;;;;5013386;28;20456;-71
2022/03/17 02:04:33;;;;;;;14.23;7.05;;;;;;;;;;5012890;28;20034;-71
2022/03/17 02:07:04;;;;;;;12.73;7.43;;;;;;;;;;5012303;28;20053;-75
2022/03/17 02:09:33;;;;;;;12.73;7.63;;;;;;;;;;5008941;28;20125;-69
2022/03/17 02:14:51;;;;;;;14.90;7.97;;;;;;;;;;4999602;28;20080;-75
2022/03/17 02:17:19;;;;;;;15.82;9.25;;;;;;;;;;4993347;28;20038;-75
2022/03/17 02:19:48;;;;;;;14.05;8.60;;;;;;;;;;4992940;28;20513;-71
2022/03/17 02:22:17;;;;;;;15.57;8.27;;;;;;;;;;4993303;28;20038;-72
2022/03/17 02:27:33;;;;;;;15.48;9.18;;;;;;;;;;4992649;28;20136;-69
2022/03/17 02:30:03;;;;;;;20.63;9.70;;;;;;;;;;4993102;28;20125;-69
2022/03/17 02:32:30;;;;;;;22.25;8.95;;;;;;;;;;4975454;28;20139;-75
2022/03/17 02:34:58;;;;;;;14.55;8.95;;;;;;;;;;4992821;28;20051;-74
2022/03/17 02:37:26;;;;;;;16.50;8.77;;;;;;;;;;4992857;28;20125;-71
2022/03/17 02:39:54;;;;;;;17.27;9.77;;;;;;;;;;4992698;28;20042;-74
2022/03/17 02:42:23;;;;;;;16.65;9.48;;;;;;;;;;4993006;28;20077;-71
2022/03/17 02:44:50;;;;;;;17.98;9.45;;;;;;;;;;4975598;28;20038;-72
2022/03/17 02:47:17;;;;;;;15.30;8.27;;;;;;;;;;4992391;28;20118;-71
2022/03/17 02:49:47;;;;;;;15.18;8.40;;;;;;;;;;4992149;28;20413;-69
2022/03/17 02:52:17;;;;;;;18.08;8.93;;;;;;;;;;4992817;28;20058;-75
2022/03/17 02:54:46;;;;;;;15.50;7.93;;;;;;;;;;4992808;28;20076;-75
2022/03/17 02:57:13;;;;;;;11.35;7.15;;;;;;;;;;4992109;28;20045;-75
2022/03/17 02:59:41;;;;;;;23.73;9.15;;;;;;;;;;4992664;28;20070;-71
2022/03/17 03:02:08;;;;;;;14.10;7.43;;;;;;;;;;4992388;28;20108;-75
2022/03/17 03:04:38;;;;;;;16.13;7.65;;;;;;;;;;4992357;28;20506;-75
2022/03/17 03:07:06;;;;;;;12.00;6.47;;;;;;;;;;4992808;28;20054;-75
2022/03/17 03:09:34;;;;;;;15.80;6.68;;;;;;;;;;4975468;28;20046;-71
2022/03/17 03:12:01;;;;;;;13.93;7.30;;;;;;;;;;4992558;28;20042;-75
2022/03/17 03:14:29;;;;;;;11.02;6.55;;;;;;;;;;5002465;28;20077;-69
2022/03/17 03:16:57;;;;;;;15.80;7.20;;;;;;;;;;5012022;28;20053;-74
2022/03/17 03:19:24;;;;;;;17.27;7.85;;;;;;;;;;5012264;28;20041;-69
2022/03/17 03:21:53;;;;;;;20.65;10.38;;;;;;;;;;5012921;28;20465;-69
2022/03/17 03:24:20;;;;;;;20.05;9.75;;;;;;;;;;4997736;28;20034;-71
2022/03/17 03:26:48;;;;;;;23.83;12.00;;;;;;;;;;5015912;28;20038;-75
2022/03/17 03:29:28;;;;;;;20.90;11.48;;;;;;;;;;5015757;28;20048;-74
2022/03/17 03:31:56;;;;;;;24.20;11.10;;;;;;;;;;4997966;28;20429;-74
2022/03/17 03:34:25;;;;;;;22.45;11.38;;;;;;;;;;5015507;28;20456;-75
2022/03/17 03:39:39;;;;;;;24.55;10.73;;;;;;;;;;5016003;28;20085;-75
2022/03/17 03:42:08;;;;;;;15.07;10.98;;;;;;;;;;5015655;28;20053;-74
2022/03/17 03:44:36;;;;;;;21.48;10.70;;;;;;;;;;5015706;28;20049;-71
2022/03/17 03:47:05;;;;;;;24.38;10.48;;;;;;;;;;5015124;28;20409;-69
2022/03/17 03:49:32;;;;;;;26.23;10.68;;;;;;;;;;5015178;28;20042;-71
2022/03/17 03:52:01;;;;;;;17.88;10.88;;;;;;;;;;5015360;28;20409;-69
2022/03/17 03:54:28;;;;;;;24.05;9.77;;;;;;;;;;5015604;28;20476;-71
2022/03/17 03:56:57;;;;;;;16.00;9.95;;;;;;;;;;5015636;28;20042;-69
2022/03/17 03:59:25;;;;;;;17.98;9.40;;;;;;;;;;4997093;28;20080;-71
2022/03/17 04:01:55;;;;;;;16.50;9.90;;;;;;;;;;5031468;28;20125;-69
2022/03/17 04:04:24;;;;;;;22.13;10.88;;;;;;;;;;5034814;28;20041;-69
2022/03/17 04:06:52;;;;;;;19.20;11.13;;;;;;;;;;5034928;28;20041;-69
2022/03/17 04:09:23;;;;;;;15.75;10.00;;;;;;;;;;5034767;28;20477;-75
2022/03/17 04:11:51;;;;;;;19.45;10.00;;;;;;;;;;5035093;28;20128;-71
2022/03/17 04:14:19;;;;;;;18.80;10.25;;;;;;;;;;5034642;28;20152;-75
2022/03/17 04:16:50;;;;;;;18.25;9.30;;;;;;;;;;5034953;28;20099;-69
2022/03/17 04:19:18;;;;;;;24.92;10.23;;;;;;;;;;5017294;28;20088;-69
2022/03/17 04:21:49;;;;;;;15.27;9.13;;;;;;;;;;5035060;28;20061;-75
2022/03/17 04:24:17;;;;;;;15.00;8.73;;;;;;;;;;5016330;28;20454;-71
2022/03/17 04:26:45;;;;;;;15.07;9.15;;;;;;;;;;5034514;28;20136;-72
2022/03/17 04:29:14;;;;;;;14.20;8.82;;;;;;;;;;5034031;28;20045;-75
2022/03/17 04:31:42;;;;;;;28.02;10.02;;;;;;;;;;5034366;28;20053;-74
2022/03/17 04:34:10;;;;;;;19.08;9.40;;;;;;;;;;5034145;28;20053;-74
2022/03/17 04:36:38;;;;;;;17.17;9.43;;;;;;;;;;5033844;28;20049;-71
2022/03/17 04:39:10;;;;;;;20.05;8.75;;;;;;;;;;5034771;28;20568;-69
2022/03/17 04:41:39;;;;;;;17.83;7.82;;;;;;;;;;5016598;28;20041;-72
2022/03/17 04:44:08;;;;;;;26.55;9.05;;;;;;;;;;5017092;28;20045;-69
2022/03/17 04:46:36;;;;;;;20.45;8.85;;;;;;;;;;5016095;28;20042;-70
2022/03/17 04:49:04;;;;;;;17.15;7.68;;;;;;;;;;5033937;28;20099;-75
2022/03/17 04:51:32;;;;;;;18.23;8.57;;;;;;;;;;5034206;28;20045;-69
2022/03/17 04:54:02;;;;;;;19.05;7.82;;;;;;;;;;5034275;28;20519;-71
2022/03/17 04:56:30;;;;;;;11.85;7.57;;;;;;;;;;5033965;28;20048;-75
2022/03/17 04:58:58;;;;;;;13.23;6.95;;;;;;;;;;5034022;28;20124;-71
2022/03/17 05:01:25;;;;;;;15.90;6.30;;;;;;;;;;5033676;28;20045;-74
2022/03/17 05:03:53;;;;;;;13.35;6.40;;;;;;;;;;5033378;28;20095;-69
2022/03/17 05:06:21;;;;;;;12.85;6.35;;;;;;;;;;5033600;28;20042;-74
2022/03/17 05:08:48;;;;;;;9.63;5.60;;;;;;;;;;5015970;28;20404;-69
2022/03/17 05:11:16;;;;;;;12.15;5.75;;;;;;;;;;5016022;28;20495;-69
2022/03/17 05:13:44;;;;;;;17.20;7.25;;;;;;;;;;5033425;28;20089;-69
2022/03/17 05:16:15;;;;;;;10.93;5.78;;;;;;;;;;5033592;28;20049;-74
2022/03/17 05:18:43;;;;;;;7.88;3.90;;;;;;;;;;5034020;28;20144;-71
2022/03/17 05:21:14;;;;;;;11.63;5.75;;;;;;;;;;5034413;28;20111;-74
2022/03/17 05:23:42;;;;;;;6.70;4.40;;;;;;;;;;5015819;28;20137;-75
2022/03/17 05:26:09;;;;;;;10.90;5.50;;;;;;;;;;5015419;28;20129;-71
2022/03/17 05:28:39;;;;;;;15.07;6.13;;;;;;;;;;5033421;28;20038;-70
2022/03/17 05:31:07;;;;;;;11.88;5.47;;;;;;;;;;5033351;28;20047;-75
2022/03/17 05:33:35;;;;;;;17.98;6.75;;;;;;;;;;5033170;28;20045;-75
2022/03/17 05:36:05;;;;;;;14.43;6.88;;;;;;;;;;5033273;28;20052;-69
2022/03/17 05:38:33;;;;;;;14.73;6.90;;;;;;;;;;5033239;28;20434;-75
2022/03/17 05:41:01;;;;;;;15.10;7.00;;;;;;;;;;5032860;28;20038;-69
2022/03/17 05:43:28;;;;;;;10.00;6.68;;;;;;;;;;5033142;28;20051;-71
2022/03/17 05:45:56;;;;;;;13.52;5.72;;;;;;;;;;5024558;28;20042;-69
2022/03/17 05:48:24;;;;;;;10.30;5.85;;;;;;;;;;5012469;28;20552;-71
2022/03/17 05:50:59;;;;;;;10.57;6.05;;;;;;;;;;5012679;28;20046;-75
2022/03/17 05:53:27;;;;;;;14.98;6.28;;;;;;;;;;5013246;28;20081;-74
2022/03/17 05:55:55;;;;;;;9.48;6.05;;;;;;;;;;5012649;28;20037;-74
2022/03/17 05:58:23;;;;;;;12.05;5.75;;;;;;;;;;4995260;28;20132;-69
2022/03/17 06:00:51;;;;;;;12.57;5.90;;;;;;;;;;4991208;28;20469;-74
2022/03/17 06:03:19;;;;;;;9.70;5.10;;;;;;;;;;5010414;28;20482;-70
2022/03/17 06:05:46;;;;;;;9.23;4.10;;;;;;;;;;5012817;28;20423;-71
2022/03/17 06:08:14;;;;;;;13.02;5.30;;;;;;;;;;5013239;28;20049;-72
2022/03/17 06:10:45;;;;;;;7.95;4.20;;;;;;;;;;5012734;28;20426;-74
2022/03/17 06:13:13;;;;;;;10.77;4.72;;;;;;;;;;5012897;28;20549;-74
2022/03/17 06:15:41;;;;;;;11.63;5.35;;;;;;;;;;4995557;28;20413;-74
2022/03/17 06:18:08;;;;;;;7.50;4.60;;;;;;;;;;5012903;28;20053;-74
2022/03/17 06:20:36;;;;;;;13.13;5.10;;;;;;;;;;5013033;28;20112;-74
2022/03/17 06:23:05;;;;;;;10.02;5.40;;;;;;;;;;5012794;28;20096;-70
2022/03/17 06:25:34;;;;;;;15.20;5.25;;;;;;;;;;5012715;28;20040;-73
2022/03/17 06:28:09;;;;;;;8.70;4.40;;;;;;;;;;4995020;28;20054;-70
2022/03/17 06:30:44;;;;;;;14.00;5.15;;;;;;;;;;5012664;28;20054;-70
2022/03/17 06:33:16;;;;;;;11.82;5.20;;;;;;;;;;5012493;28;20100;-71
2022/03/17 06:35:44;;;;;;;14.98;5.10;;;;;;;;;;4993057;28;20054;-73
2022/03/17 06:38:11;;;;;;;13.50;6.00;;;;;;;;;;5006841;28;20037;-74
2022/03/17 06:40:39;;;;;;;14.38;5.13;;;;;;;;;;5020917;28;20037;-73
2022/03/17 06:43:06;;;;;;;11.95;5.00;;;;;;;;;;4999278;28;20066;-75
2022/03/17 06:45:35;;;;;;;16.90;4.88;;;;;;;;;;4995185;28;20044;-70
2022/03/17 06:48:03;;;;;;;11.60;4.10;;;;;;;;;;5011531;28;20038;-75
2022/03/17 06:50:31;;;;;;;10.23;4.15;;;;;;;;;;5016916;28;20120;-70
2022/03/17 06:52:59;;;;;;;8.82;4.60;;;;;;;;;;5012247;28;20045;-70
2022/03/17 06:55:27;;;;;;;6.38;4.00;;;;;;;;;;5009426;28;20042;-74
2022/03/17 06:57:56;;;;;;;7.50;4.03;;;;;;;;;;4996670;28;20052;-74
2022/03/17 07:00:25;;;;;;;8.15;3.85;;;;;;;;;;5015265;28;20096;-74
2022/03/17 07:02:55;;;;;;;8.23;3.97;;;;;;;;;;5012419;28;20045;-74
2022/03/17 07:05:23;;;;;;;7.55;3.63;;;;;;;;;;4997248;28;20110;-71
2022/03/17 07:07:50;;;;;;;7.80;4.03;;;;;;;;;;4997658;28;20137;-71
2022/03/17 07:10:18;;;;;;;11.40;3.28;;;;;;;;;;4997387;28;20108;-75
2022/03/17 07:15:40;;;;;;;12.45;4.47;;;;;;;;;;4959460;28;20122;-73
2022/03/17 07:18:07;;;;;;;7.60;3.80;;;;;;;;;;4966499;28;20044;-73
2022/03/17 07:20:35;;;;;;;9.00;4.38;;;;;;;;;;4978621;28;20133;-74
2022/03/17 07:23:03;;;;;;;9.90;4.45;;;;;;;;;;4964093;28;20039;-72
2022/03/17 07:25:30;;;;;;;4.15;3.67;;;;;;;;;;4967629;28;20042;-70
2022/03/17 07:27:58;;;;;;;9.02;3.83;;;;;;;;;;4962729;28;20063;-71
2022/03/17 07:30:26;;;;;;;10.70;5.15;;;;;;;;;;4971420;28;20558;-71
2022/03/17 07:32:59;;;;;;;9.20;3.47;;;;;;;;;;4979040;28;20394;-71
2022/03/17 07:35:27;;;;;;;9.40;3.50;;;;;;;;;;4979825;28;20525;-71
2022/03/17 07:37:54;;;;;;;8.93;3.60;;;;;;;;;;4974454;28;20137;-71
2022/03/17 07:40:22;;;;;;;8.50;4.20;;;;;;;;;;4983582;28;20363;-71
2022/03/17 07:42:50;;;;;;;16.67;5.10;;;;;;;;;;4977123;28;20042;-73
2022/03/17 07:45:26;;;;;;;8.75;3.90;;;;;;;;;;4982547;28;20035;-76
2022/03/17 07:48:13;;;;;;;8.02;3.45;;;;;;;;;;4976436;28;20054;-75
2022/03/17 07:50:54;;;;;;;7.28;4.03;;;;;;;;;;4974504;28;20042;-74
2022/03/17 07:53:21;;;;;;;9.43;4.00;;;;;;;;;;4974513;28;20053;-74
2022/03/17 07:55:54;;;;;;;9.73;3.85;;;;;;;;;;4974242;28;20053;-70
2022/03/17 07:58:26;;;;;;;6.63;3.83;;;;;;;;;;4973649;28;20157;-70
2022/03/17 08:00:54;;;;;;;9.60;3.55;;;;;;;;;;4980347;28;20034;-74
2022/03/17 08:03:23;;;;;;;8.25;3.30;;;;;;;;;;4984665;28;20034;-75
2022/03/17 08:05:52;;;;;;;5.55;3.40;;;;;;;;;;4993559;28;20034;-75
2022/03/17 08:08:20;;;;;;;6.85;3.65;;;;;;;;;;4992535;28;20043;-69
2022/03/17 08:10:49;;;;;;;8.32;3.80;;;;;;;;;;4984720;28;20051;-69
2022/03/17 08:13:16;;;;;;;8.95;3.10;;;;;;;;;;4971618;28;20050;-69
2022/03/17 08:15:44;;;;;;;4.53;2.35;;;;;;;;;;4952438;29;20043;-69
2022/03/17 08:18:12;;;;;;;15.65;3.92;;;;;;;;;;4952132;29;20157;-73
2022/03/17 08:20:40;;;;;;;10.38;3.63;;;;;;;;;;4952483;29;20199;-77
2022/03/17 08:23:15;;;;;;;6.07;3.22;;;;;;;;;;4952267;29;20039;-74
2022/03/17 08:25:44;;;;;;;11.43;3.33;;;;;;;;;;4950134;29;20117;-76
2022/03/17 08:28:11;;;;;;;6.28;3.80;;;;;;;;;;4953434;29;20039;-76
2022/03/17 08:30:39;;;;;;;6.32;3.13;;;;;;;;;;4952386;28;20055;-76
2022/03/17 08:33:07;;;;;;;10.73;3.90;;;;;;;;;;4951938;29;20039;-76
2022/03/17 08:35:38;;;;;;;7.63;3.42;;;;;;;;;;4952476;29;20043;-76
2022/03/17 08:38:06;;;;;;;22.02;3.65;;;;;;;;;;4954246;29;20047;-77
2022/03/17 08:40:40;;;;;;;4.85;2.20;;;;;;;;;;4954252;29;20129;-77
2022/03/17 08:43:11;;;;;;;9.82;2.83;;;;;;;;;;4946032;29;20526;-76
2022/03/17 08:51:14;;;;;;;5.85;2.80;;;;;;;;;;4951002;29;20081;-77
2022/03/17 08:53:44;;;;;;;3.20;2.30;;;;;;;;;;4951481;29;20075;-73
2022/03/17 08:56:18;;;;;;;6.22;2.30;;;;;;;;;;4951337;29;20035;-71
2022/03/17 08:58:45;;;;;;;4.43;2.30;;;;;;;;;;4947173;29;20043;-72
2022/03/17 09:01:13;;;;;;;3.08;1.85;;;;;;;;;;4954326;29;20092;-72
2022/03/17 09:03:41;;;;;;;4.82;2.17;;;;;;;;;;4953289;29;20055;-72
2022/03/17 09:06:10;;;;;;;9.65;2.83;;;;;;;;;;4947757;29;20130;-74
2022/03/17 09:08:42;;;;;;;4.15;2.20;;;;;;;;;;4949450;29;20031;-76
2022/03/17 09:11:13;;;;;;;5.00;2.10;;;;;;;;;;4953381;29;20046;-76
2022/03/17 09:13:41;;;;;;;181.75;11.65;;;;;;;;;;4954612;28;20066;-76
2022/03/17 09:16:13;;;;;;;7.80;5.03;;;;;;;;;;4953806;29;20047;-72
2022/03/17 09:18:42;;;;;;;4.60;2.35;;;;;;;;;;4952911;28;20135;-71
2022/03/17 09:21:11;;;;;;;6.47;2.20;;;;;;;;;;4952695;29;20043;-76
2022/03/17 09:23:40;;;;;;;6.38;2.42;;;;;;;;;;4949936;29;20035;-72
2022/03/17 09:26:08;;;;;;;6.03;2.10;;;;;;;;;;4953539;29;20044;-72
2022/03/17 09:28:37;;;;;;;3.13;2.10;;;;;;;;;;4954044;29;20043;-76
2022/03/17 09:31:07;;;;;;;1.92;1.80;;;;;;;;;;4947684;28;20130;-76
2022/03/17 09:33:36;;;;;;;5.53;2.53;;;;;;;;;;4922098;29;20047;-72
2022/03/17 09:36:10;;;;;;;9.68;2.40;;;;;;;;;;4953499;29;20143;-72
2022/03/17 09:38:43;;;;;;;6.63;2.53;;;;;;;;;;4936963;29;20569;-72
2022/03/17 09:41:32;;;;;;;5.38;2.10;;;;;;;;;;4953296;29;20035;-75
2022/03/17 09:44:00;;;;;;;6.18;2.25;;;;;;;;;;4950495;29;20341;-72
2022/03/17 09:46:32;;;;;;;6.72;2.20;;;;;;;;;;4953725;29;20039;-72
2022/03/17 09:49:01;;;;;;;5.00;2.05;;;;;;;;;;4944596;29;20459;-75
2022/03/17 09:51:29;;;;;;;7.35;2.15;;;;;;;;;;4954204;29;20047;-72
2022/03/17 09:54:00;;;;;;;6.22;2.80;;;;;;;;;;4954704;29;20053;-71
2022/03/17 09:56:29;;;;;;;5.13;2.30;;;;;;;;;;4953244;29;20134;-73
2022/03/17 09:58:58;;;;;;;5.97;2.45;;;;;;;;;;4937455;29;20106;-72
2022/03/17 10:01:28;;;;;;;5.20;2.30;;;;;;;;;;4954152;29;20058;-78
2022/03/17 10:04:00;;;;;;;7.95;2.13;;;;;;;;;;4953360;29;20106;-78
2022/03/17 10:06:31;;;;;;;4.07;2.35;;;;;;;;;;4953104;29;20704;-72
2022/03/17 10:08:59;;;;;;;4.25;2.40;;;;;;;;;;4936712;29;20046;-77
2022/03/17 10:11:32;;;;;;;3.85;2.05;;;;;;;;;;4954441;29;20121;-77
2022/03/17 10:14:05;;;;;;;3.63;2.17;;;;;;;;;;4962611;28;20078;-77
2022/03/17 10:16:33;;;;;;;3.90;2.33;;;;;;;;;;4973660;28;20039;-77
2022/03/17 10:19:03;;;;;;;5.10;2.13;;;;;;;;;;4973452;28;20043;-72
2022/03/17 10:21:32;;;;;;;10.32;2.67;;;;;;;;;;4973480;28;20049;-77
2022/03/17 10:24:02;;;;;;;4.85;2.28;;;;;;;;;;4972880;28;20050;-72
2022/03/17 10:26:43;;;;;;;6.93;2.50;;;;;;;;;;4971400;28;20035;-72
2022/03/17 10:29:10;;;;;;;3.05;2.28;;;;;;;;;;4971345;28;20035;-76
2022/03/17 10:31:56;;;;;;;8.48;3.50;;;;;;;;;;4973417;28;20043;-76
2022/03/17 10:34:27;;;;;;;4.03;2.17;;;;;;;;;;4973718;28;20066;-72
2022/03/17 10:37:16;;;;;;;6.38;2.22;;;;;;;;;;4976816;28;20053;-73
2022/03/17 10:39:47;;;;;;;6.05;2.22;;;;;;;;;;4958350;28;20562;-76
2022/03/17 10:42:22;;;;;;;6.18;2.13;;;;;;;;;;4966795;28;20072;-72
2022/03/17 10:44:51;;;;;;;4.60;2.20;;;;;;;;;;4980134;28;20065;-76
2022/03/17 10:47:23;;;;;;;5.03;2.53;;;;;;;;;;4977115;28;20429;-77
2022/03/17 10:50:12;;;;;;;7.13;2.70;;;;;;;;;;4976269;28;20493;-79
2022/03/17 10:52:50;;;;;;;2.45;2.22;;;;;;;;;;4975403;28;20061;-78
2022/03/17 10:55:21;;;;;;;6.22;2.55;;;;;;;;;;4976072;28;20047;-78
2022/03/17 10:57:50;;;;;;;5.38;2.50;;;;;;;;;;4977210;28;20046;-73
2022/03/17 11:00:25;;;;;;;5.22;2.47;;;;;;;;;;4977119;28;20050;-74
2022/03/17 11:02:57;;;;;;;7.80;2.53;;;;;;;;;;4975831;28;20372;-78
2022/03/17 11:05:29;;;;;;;3.72;2.63;;;;;;;;;;4975733;28;20074;-78
2022/03/17 11:07:58;;;;;;;5.15;2.20;;;;;;;;;;4977516;28;20479;-77
2022/03/17 11:10:26;;;;;;;7.05;2.58;;;;;;;;;;4975823;28;20074;-74
2022/03/17 11:12:55;;;;;;;3.15;2.40;;;;;;;;;;4975644;28;20054;-73
2022/03/17 11:15:43;;;;;;;3.92;2.22;;;;;;;;;;4957643;28;20051;-73
2022/03/17 11:18:15;;;;;;;6.18;2.47;;;;;;;;;;4957504;29;20054;-79
2022/03/17 11:20:45;;;;;;;3.30;2.10;;;;;;;;;;4957762;29;20047;-78
2022/03/17 11:23:16;;;;;;;3.65;2.20;;;;;;;;;;4957419;29;20097;-74
2022/03/17 11:25:45;;;;;;;8.68;2.15;;;;;;;;;;4955823;29;20047;-78
2022/03/17 11:28:15;;;;;;;5.72;2.50;;;;;;;;;;4957449;29;20047;-73
2022/03/17 11:30:45;;;;;;;6.22;2.50;;;;;;;;;;4956225;28;20047;-79
2022/03/17 11:33:22;;;;;;;6.55;2.03;;;;;;;;;;4955927;29;20055;-74
2022/03/17 11:35:59;;;;;;;6.20;2.15;;;;;;;;;;4956417;29;20047;-78
2022/03/17 11:38:30;;;;;;;4.13;2.20;;;;;;;;;;4956833;29;20051;-78
2022/03/17 11:41:13;;;;;;;7.20;2.25;;;;;;;;;;4957041;29;20079;-73
2022/03/17 11:43:51;;;;;;;5.72;2.30;;;;;;;;;;4954274;28;20463;-73
2022/03/17 11:46:19;;;;;;;6.68;2.33;;;;;;;;;;4955303;29;20070;-76
2022/03/17 11:48:50;;;;;;;5.63;2.60;;;;;;;;;;4957017;29;20042;-78
2022/03/17 11:51:20;;;;;;;7.53;2.60;;;;;;;;;;4955522;29;20050;-78
2022/03/17 11:53:48;;;;;;;3.88;2.15;;;;;;;;;;4957071;29;20035;-74
2022/03/17 11:56:44;;;;;;;8.32;2.70;;;;;;;;;;4954204;29;20085;-78
2022/03/17 11:59:16;;;;;;;6.35;2.65;;;;;;;;;;4955275;29;20130;-79
2022/03/17 12:01:47;;;;;;;5.25;2.90;;;;;;;;;;4955046;29;20130;-78
2022/03/17 12:04:26;;;;;;;6.80;2.63;;;;;;;;;;4956749;29;20507;-79
2022/03/17 12:06:55;;;;;;;5.40;2.92;;;;;;;;;;4955215;29;20076;-73
2022/03/17 12:09:31;;;;;;;5.90;2.80;;;;;;;;;;4956395;29;20077;-73
2022/03/17 12:12:00;;;;;;;5.45;2.50;;;;;;;;;;4956217;29;20055;-73
2022/03/17 12:14:33;;;;;;;7.72;3.00;;;;;;;;;;4950152;28;20395;-78
2022/03/17 12:17:05;;;;;;;12.10;3.25;;;;;;;;;;4974329;28;20042;-79
2022/03/17 12:19:49;;;;;;;6.15;2.63;;;;;;;;;;4974439;28;20042;-73
2022/03/17 12:22:20;;;;;;;6.07;2.78;;;;;;;;;;4973920;28;20422;-73
2022/03/17 12:24:52;;;;;;;6.57;3.17;;;;;;;;;;4973949;28;20090;-73
2022/03/17 12:27:30;;;;;;;4.93;2.58;;;;;;;;;;4973857;28;20075;-73
2022/03/17 12:30:03;;;;;;;4.97;2.60;;;;;;;;;;4975159;28;20418;-78
2022/03/17 12:32:31;;;;;;;;;;;;;;;;;;4974287;28;20093;-76
2022/03/17 12:35:00;;;;;;;6.70;2.65;;;;;;;;;;4964505;28;19923;-77
2022/03/17 12:37:32;;;;;;;7.50;2.25;;;;;;;;;;4955075;28;20097;-74
2022/03/17 12:40:09;;;;;;;3.38;2.60;;;;;;;;;;4955363;29;20043;-71
2022/03/17 12:42:42;;;;;;;8.25;2.50;;;;;;;;;;4953213;29;20066;-74
2022/03/17 12:45:13;;;;;;;4.15;2.40;;;;;;;;;;4953935;29;20039;-72
2022/03/17 12:47:41;;;;;;;5.72;2.60;;;;;;;;;;4954081;29;20096;-77
2022/03/17 12:50:12;;;;;;;5.82;2.58;;;;;;;;;;4954712;29;20370;-72
2022/03/17 12:52:48;;;;;;;9.88;2.78;;;;;;;;;;4954954;29;20054;-78
2022/03/17 12:55:18;;;;;;;4.28;2.58;;;;;;;;;;4937579;29;20058;-72
2022/03/17 12:57:47;;;;;;;5.05;2.67;;;;;;;;;;4953682;29;20087;-72
2022/03/17 13:00:16;;;;;;;6.68;2.67;;;;;;;;;;4968416;28;20039;-72
2022/03/17 13:02:47;;;;;;;6.55;2.67;;;;;;;;;;4972569;28;20089;-72
2022/03/17 13:08:03;;;;;;;4.93;2.45;;;;;;;;;;4952151;28;20106;-72
2022/03/17 13:14:20;;;;;;;5.13;2.40;;;;;;;;;;4935705;29;20035;-72
2022/03/17 13:16:09;;;;;;;9.35;3.15;;;;;;;;;;4974294;28;20402;-72
2022/03/17 13:18:55;;;;;;;8.52;2.63;;;;;;;;;;4972452;28;20047;-72
2022/03/17 13:21:23;;;;;;;10.45;2.55;;;;;;;;;;4973871;28;20046;-77
2022/03/17 13:23:52;;;;;;;9.63;2.60;;;;;;;;;;4980169;28;20035;-72
2022/03/17 13:26:25;;;;;;;6.30;2.97;;;;;;;;;;4973953;28;20434;-72
2022/03/17 13:29:00;;;;;;;6.78;2.30;;;;;;;;;;4969380;28;20043;-74
2022/03/17 13:31:44;;;;;;;4.63;2.25;;;;;;;;;;4979940;28;20097;-77
2022/03/17 13:34:28;;;;;;;6.72;2.50;;;;;;;;;;4958700;28;20049;-77
2022/03/17 13:36:59;;;;;;;5.50;2.67;;;;;;;;;;4951628;28;20049;-72
2022/03/17 13:39:34;;;;;;;5.72;2.90;;;;;;;;;;4984283;28;20070;-73
2022/03/17 13:42:05;;;;;;;7.55;2.70;;;;;;;;;;4973798;28;20406;-78
2022/03/17 13:44:45;;;;;;;5.30;2.72;;;;;;;;;;4957933;28;20078;-78
2022/03/17 13:47:19;;;;;;;7.78;2.70;;;;;;;;;;4975427;28;20057;-78
2022/03/17 13:50:09;;;;;;;8.95;2.70;;;;;;;;;;4976921;28;20034;-73
2022/03/17 13:52:37;;;;;;;8.70;3.08;;;;;;;;;;4968002;28;20057;-78
2022/03/17 13:55:16;;;;;;;5.82;2.50;;;;;;;;;;4972491;28;20042;-74
2022/03/17 13:57:46;;;;;;;4.65;2.38;;;;;;;;;;4967891;28;20106;-73
2022/03/17 14:00:18;;;;;;;6.50;2.78;;;;;;;;;;4971982;28;20049;-73
2022/03/17 14:02:46;;;;;;;6.20;2.63;;;;;;;;;;4973532;28;20122;-77
2022/03/17 14:05:21;;;;;;;9.60;2.70;;;;;;;;;;4966574;28;20046;-77
2022/03/17 14:07:51;;;;;;;6.18;2.47;;;;;;;;;;4971522;28;20066;-77
2022/03/17 14:10:18;;;;;;;6.53;2.50;;;;;;;;;;4971459;28;20090;-77
2022/03/17 14:12:49;;;;;;;5.28;2.63;;;;;;;;;;4971085;28;20599;-77
2022/03/17 14:15:17;;;;;;;8.20;3.00;;;;;;;;;;4949191;29;20051;-73
2022/03/17 14:17:48;;;;;;;11.52;2.83;;;;;;;;;;4951463;29;20507;-77
2022/03/17 14:20:15;;;;;;;8.85;3.50;;;;;;;;;;4947850;29;20080;-78
2022/03/17 14:25:30;;;;;;;2.67;2.10;;;;;;;;;;4952620;29;20043;-73
2022/03/17 14:27:58;;;;;;;4.35;2.20;;;;;;;;;;4952827;29;20035;-78
2022/03/17 14:30:26;;;;;;;12.00;3.85;;;;;;;;;;4951456;29;20035;-73
2022/03/17 14:33:03;;;;;;;3.88;2.85;;;;;;;;;;4951420;28;20043;-77
2022/03/17 14:35:31;;;;;;;7.35;2.60;;;;;;;;;;4951583;29;20047;-78
2022/03/17 14:37:59;;;;;;;5.55;2.65;;;;;;;;;;4942114;29;20047;-78
2022/03/17 14:40:27;;;;;;;13.65;3.10;;;;;;;;;;4935778;29;20043;-78
2022/03/17 14:42:54;;;;;;;7.18;2.67;;;;;;;;;;4949365;29;20040;-78
2022/03/17 14:45:24;;;;;;;7.75;2.20;;;;;;;;;;4964264;28;20066;-77
2022/03/17 14:47:53;;;;;;;4.90;2.67;;;;;;;;;;4971787;28;20047;-77
2022/03/17 14:50:23;;;;;;;5.05;2.58;;;;;;;;;;4940659;28;20050;-72
2022/03/17 14:52:53;;;;;;;7.75;2.30;;;;;;;;;;4971920;28;20047;-76
2022/03/17 14:55:23;;;;;;;6.00;2.65;;;;;;;;;;4953614;28;20138;-73
2022/03/17 14:57:51;;;;;;;9.45;2.95;;;;;;;;;;4952461;29;20057;-72
2022/03/17 15:00:20;;;;;;;8.95;3.10;;;;;;;;;;4950702;29;20047;-76
2022/03/17 15:02:47;;;;;;;5.70;2.70;;;;;;;;;;4953060;29;20051;-72
2022/03/17 15:05:17;;;;;;;4.28;2.70;;;;;;;;;;4951805;29;20444;-73
2022/03/17 15:07:46;;;;;;;8.30;3.05;;;;;;;;;;4951929;29;20471;-76
2022/03/17 15:10:15;;;;;;;12.77;3.22;;;;;;;;;;4935959;29;20054;-76
2022/03/17 15:12:42;;;;;;;5.47;2.70;;;;;;;;;;4951018;29;20083;-73
2022/03/17 15:15:11;;;;;;;10.05;3.05;;;;;;;;;;4953977;28;20077;-72
2022/03/17 15:17:40;;;;;;;8.25;2.90;;;;;;;;;;4974058;28;20047;-72
2022/03/17 15:20:09;;;;;;;6.30;3.08;;;;;;;;;;4976766;28;20047;-73
2022/03/17 15:22:36;;;;;;;5.13;2.78;;;;;;;;;;4975011;28;20455;-73